Time;durP1;ratioP1;P1;durP2;ratioP2;P2;SDS_P1;SDS_P2;PMS_P1;PMS_P2;Temp;Humidity;BMP_temperature;BMP_pressure;BME280_temperature;BME280_humidity;BME280_pressure;Samples;Min_cycle;Max_cycle;Signal;HPM_P1;HPM_P2
2022/04/12 00:01:13;;;;;;;3.28;3.05;;;10.20;67.80;;;;;;5091713;28;20219;-63
2022/04/12 00:03:39;;;;;;;3.10;2.58;;;10.20;68.10;;;;;;5092446;28;20230;-63
2022/04/12 00:06:06;;;;;;;7.40;3.40;;;10.10;68.30;;;;;;5095287;28;20572;-63
2022/04/12 00:08:33;;;;;;;4.32;3.25;;;10.10;68.40;;;;;;5095894;28;20231;-62
2022/04/12 00:11:00;;;;;;;6.88;3.38;;;10.10;68.60;;;;;;5095189;28;20231;-63
2022/04/12 00:13:27;;;;;;;4.57;3.47;;;10.00;68.70;;;;;;5096036;28;20223;-62
2022/04/12 00:15:58;;;;;;;4.38;3.58;;;10.00;69.10;;;;;;5095821;28;20228;-63
2022/04/12 00:21:09;;;;;;;3.85;3.22;;;10.00;69.40;;;;;;5095038;28;20563;-63
2022/04/12 00:23:36;;;;;;;3.67;3.38;;;10.00;69.50;;;;;;5095546;28;20541;-63
2022/04/12 00:26:02;;;;;;;4.07;3.40;;;9.90;70.90;;;;;;5095079;28;20241;-63
2022/04/12 00:28:29;;;;;;;5.30;3.67;;;9.90;70.90;;;;;;5095290;28;20220;-63
2022/04/12 00:30:57;;;;;;;5.63;3.50;;;9.90;70.60;;;;;;5095366;28;20231;-63
2022/04/12 00:33:24;;;;;;;5.80;3.03;;;9.90;70.60;;;;;;5094792;28;20541;-63
2022/04/12 00:35:52;;;;;;;4.13;3.38;;;9.90;70.50;;;;;;5095557;28;20223;-63
2022/04/12 00:38:22;;;;;;;3.85;3.05;;;9.90;71.10;;;;;;5095176;28;20689;-62
2022/04/12 00:40:50;;;;;;;6.68;3.95;;;9.90;71.00;;;;;;5094831;28;20235;-62
2022/04/12 00:43:18;;;;;;;4.55;3.50;;;9.80;70.90;;;;;;5095137;28;20223;-63
2022/04/12 00:45:45;;;;;;;4.25;3.13;;;9.90;71.30;;;;;;5095232;28;20231;-63
2022/04/12 00:48:13;;;;;;;4.20;3.40;;;9.80;71.40;;;;;;5094643;28;20227;-62
2022/04/12 00:50:41;;;;;;;5.57;4.15;;;9.90;71.50;;;;;;5095373;28;20231;-63
2022/04/12 00:53:08;;;;;;;4.00;3.20;;;9.80;71.60;;;;;;5094869;28;20216;-62
2022/04/12 00:55:35;;;;;;;3.85;3.55;;;9.80;71.60;;;;;;5094891;28;20219;-63
2022/04/12 00:58:06;;;;;;;8.65;3.50;;;9.80;71.80;;;;;;5094709;28;20223;-63
2022/04/12 01:00:33;;;;;;;4.38;3.55;;;9.80;71.90;;;;;;5094621;28;20243;-62
2022/04/12 01:03:00;;;;;;;6.30;3.60;;;9.80;72.00;;;;;;5094666;28;20223;-63
2022/04/12 01:05:28;;;;;;;7.18;3.50;;;9.80;72.40;;;;;;5094525;28;20677;-62
2022/04/12 01:07:56;;;;;;;5.18;4.10;;;9.80;72.60;;;;;;5094847;28;20234;-62
2022/04/12 01:10:24;;;;;;;3.67;3.38;;;9.80;71.20;;;;;;5094203;28;20590;-62
2022/04/12 01:12:52;;;;;;;5.07;3.15;;;9.80;70.90;;;;;;5094828;28;20223;-62
2022/04/12 01:15:21;;;;;;;4.53;3.50;;;9.70;70.40;;;;;;5094123;28;20235;-62
2022/04/12 01:17:48;;;;;;;5.38;3.10;;;9.70;70.50;;;;;;5094549;28;20223;-62
2022/04/12 01:20:17;;;;;;;4.20;3.60;;;9.60;70.10;;;;;;5094299;28;20220;-62
2022/04/12 01:22:51;;;;;;;5.20;4.20;;;9.60;70.30;;;;;;5094516;28;20215;-63
2022/04/12 01:25:20;;;;;;;4.80;3.90;;;9.60;70.40;;;;;;5094026;28;20227;-63
2022/04/12 01:27:47;;;;;;;6.38;4.82;;;9.50;70.70;;;;;;5094453;28;20238;-63
2022/04/12 01:30:14;;;;;;;6.05;4.03;;;9.60;70.80;;;;;;5094079;28;20218;-63
2022/04/12 01:32:41;;;;;;;5.38;3.30;;;9.60;70.70;;;;;;5094229;28;20561;-64
2022/04/12 01:35:09;;;;;;;4.43;3.50;;;9.60;70.80;;;;;;5094234;28;20235;-63
2022/04/12 01:37:35;;;;;;;5.68;3.63;;;9.60;70.80;;;;;;5094010;28;20219;-61
2022/04/12 01:40:03;;;;;;;5.35;3.75;;;9.60;71.00;;;;;;5094166;28;20219;-61
2022/04/12 01:42:32;;;;;;;9.20;4.38;;;9.70;71.40;;;;;;5079003;28;20586;-63
2022/04/12 01:44:59;;;;;;;4.32;3.92;;;9.70;71.20;;;;;;5073940;28;20242;-61
2022/04/12 01:47:25;;;;;;;6.45;4.28;;;9.70;71.70;;;;;;5073085;28;20227;-61
2022/04/12 01:49:52;;;;;;;5.10;3.47;;;9.70;72.10;;;;;;5073894;28;20234;-61
2022/04/12 01:52:20;;;;;;;5.47;3.88;;;9.70;72.20;;;;;;5073275;28;20576;-64
2022/04/12 01:54:50;;;;;;;5.50;3.80;;;9.70;72.20;;;;;;5073580;28;20697;-61
2022/04/12 01:57:17;;;;;;;5.63;4.10;;;9.70;72.60;;;;;;5091438;28;20473;-61
2022/04/12 01:59:45;;;;;;;4.90;4.47;;;9.70;72.80;;;;;;5093677;28;20216;-61
2022/04/12 02:02:12;;;;;;;5.60;4.25;;;9.60;72.40;;;;;;5093545;28;20227;-62
2022/04/12 02:04:39;;;;;;;3.88;3.58;;;9.60;72.30;;;;;;5093590;28;20735;-62
2022/04/12 02:07:06;;;;;;;4.35;3.55;;;9.60;71.90;;;;;;5093730;28;20230;-61
2022/04/12 02:09:33;;;;;;;5.45;4.95;;;9.60;72.30;;;;;;5093120;28;20234;-62
2022/04/12 02:12:00;;;;;;;6.75;3.58;;;9.60;72.30;;;;;;5093390;28;20224;-61
2022/04/12 02:14:27;;;;;;;4.85;3.40;;;9.60;72.70;;;;;;5093121;28;20227;-62
2022/04/12 02:16:55;;;;;;;4.38;3.92;;;9.60;72.80;;;;;;5093414;28;20241;-62
2022/04/12 02:19:22;;;;;;;4.70;3.63;;;9.60;72.60;;;;;;5093187;28;20238;-62
2022/04/12 02:21:49;;;;;;;4.82;4.40;;;9.50;71.60;;;;;;5093174;28;20230;-62
2022/04/12 02:24:16;;;;;;;6.38;4.90;;;9.30;71.30;;;;;;5093394;28;20219;-61
2022/04/12 02:26:42;;;;;;;3.80;3.50;;;9.30;71.70;;;;;;5092929;28;20211;-63
2022/04/12 02:29:12;;;;;;;3.95;3.63;;;9.30;71.80;;;;;;5093073;28;20231;-62
2022/04/12 02:31:39;;;;;;;3.40;3.08;;;9.30;73.00;;;;;;5092850;28;20235;-62
2022/04/12 02:34:07;;;;;;;5.13;3.65;;;9.30;72.30;;;;;;5093351;28;20223;-63
2022/04/12 02:36:33;;;;;;;4.65;4.25;;;9.30;72.40;;;;;;5092874;28;20223;-62
2022/04/12 02:39:00;;;;;;;6.57;4.00;;;9.20;72.50;;;;;;5093343;28;20224;-62
2022/04/12 02:41:27;;;;;;;9.15;4.25;;;9.20;73.00;;;;;;5092583;28;20363;-62
2022/04/12 02:43:54;;;;;;;7.32;3.53;;;9.30;73.10;;;;;;5092920;28;20226;-62
2022/04/12 02:46:21;;;;;;;8.07;4.30;;;9.30;73.20;;;;;;5092730;28;20543;-62
2022/04/12 02:48:48;;;;;;;6.22;3.70;;;9.30;73.60;;;;;;5092784;28;20223;-62
2022/04/12 02:51:16;;;;;;;5.63;4.40;;;9.20;74.00;;;;;;5093057;28;20681;-63
2022/04/12 02:53:43;;;;;;;6.68;4.28;;;9.10;72.60;;;;;;5092815;28;20235;-63
2022/04/12 02:56:09;;;;;;;9.20;4.00;;;9.10;72.80;;;;;;5092730;28;20224;-63
2022/04/12 02:58:36;;;;;;;7.32;4.47;;;9.10;72.90;;;;;;5092501;28;20227;-63
2022/04/12 03:01:03;;;;;;;8.57;4.47;;;9.00;72.50;;;;;;5092959;28;20224;-62
2022/04/12 03:03:30;;;;;;;4.00;3.60;;;9.00;72.80;;;;;;5092281;28;20214;-63
2022/04/12 03:05:59;;;;;;;6.40;4.47;;;8.90;72.90;;;;;;5092868;28;20559;-62
2022/04/12 03:08:27;;;;;;;5.28;4.13;;;8.90;73.30;;;;;;5092642;28;20228;-63
2022/04/12 03:10:54;;;;;;;7.43;4.00;;;8.90;73.30;;;;;;5092704;28;20238;-62
2022/04/12 03:13:21;;;;;;;6.68;4.50;;;8.90;73.30;;;;;;5092303;28;20254;-62
2022/04/12 03:15:48;;;;;;;4.97;3.95;;;8.80;73.10;;;;;;5092936;28;20222;-62
2022/04/12 03:18:16;;;;;;;4.75;4.35;;;8.70;73.40;;;;;;5092609;28;20231;-62
2022/04/12 03:20:43;;;;;;;5.32;4.30;;;8.70;73.30;;;;;;5092288;28;20234;-63
2022/04/12 03:23:10;;;;;;;3.95;3.65;;;8.70;73.60;;;;;;5092605;28;20227;-63
2022/04/12 03:25:39;;;;;;;9.02;6.03;;;8.70;73.70;;;;;;5092273;28;20224;-62
2022/04/12 03:28:07;;;;;;;7.45;5.35;;;8.70;73.90;;;;;;5092633;28;20220;-63
2022/04/12 03:30:33;;;;;;;6.07;4.38;;;8.70;74.20;;;;;;5092053;28;20692;-63
2022/04/12 03:33:00;;;;;;;5.07;4.65;;;8.70;74.10;;;;;;5092330;28;20230;-62
2022/04/12 03:35:27;;;;;;;6.72;4.25;;;8.70;74.30;;;;;;5092309;28;20231;-62
2022/04/12 03:37:59;;;;;;;5.45;4.30;;;8.70;74.30;;;;;;5092417;28;20219;-63
2022/04/12 03:40:28;;;;;;;7.57;3.85;;;8.70;75.20;;;;;;5094606;28;20227;-62
2022/04/12 03:42:56;;;;;;;5.40;4.90;;;8.70;74.60;;;;;;5096282;28;20235;-63
2022/04/12 03:45:23;;;;;;;8.48;5.40;;;8.70;75.30;;;;;;5096093;28;20226;-63
2022/04/12 03:47:50;;;;;;;6.28;4.93;;;8.70;75.30;;;;;;5096263;28;20224;-62
2022/04/12 03:50:19;;;;;;;6.13;5.53;;;8.70;75.40;;;;;;5096508;28;20230;-63
2022/04/12 03:52:46;;;;;;;5.65;5.10;;;8.80;75.60;;;;;;5095966;28;20222;-63
2022/04/12 03:55:13;;;;;;;7.85;5.65;;;8.80;75.10;;;;;;5096000;28;20242;-63
2022/04/12 03:57:40;;;;;;;12.20;5.50;;;8.80;75.10;;;;;;5095682;28;20239;-62
2022/04/12 04:00:10;;;;;;;6.35;5.68;;;8.80;75.20;;;;;;5096162;28;20219;-63
2022/04/12 04:02:37;;;;;;;7.55;5.60;;;8.80;75.20;;;;;;5095430;28;20234;-62
2022/04/12 04:05:05;;;;;;;5.28;4.68;;;8.80;75.30;;;;;;5096253;28;20246;-63
2022/04/12 04:07:31;;;;;;;6.25;5.05;;;8.80;75.50;;;;;;5095644;28;20569;-63
2022/04/12 04:09:58;;;;;;;7.07;5.35;;;8.80;75.60;;;;;;5095971;28;20219;-62
2022/04/12 04:12:25;;;;;;;6.78;5.93;;;8.80;75.60;;;;;;5095888;28;20223;-63
2022/04/12 04:14:52;;;;;;;7.57;5.60;;;8.80;75.50;;;;;;5095519;28;20215;-63
2022/04/12 04:17:21;;;;;;;9.23;5.88;;;8.80;75.60;;;;;;5095660;28;20314;-63
2022/04/12 04:19:48;;;;;;;6.43;4.80;;;8.80;75.80;;;;;;5095428;28;20223;-63
2022/04/12 04:22:15;;;;;;;6.53;5.93;;;8.70;75.60;;;;;;5095383;28;20685;-63
2022/04/12 04:24:42;;;;;;;6.38;5.55;;;8.70;75.60;;;;;;5095273;28;20691;-63
2022/04/12 04:27:08;;;;;;;7.82;5.82;;;8.70;75.80;;;;;;5095865;28;20216;-63
2022/04/12 04:29:35;;;;;;;7.40;5.93;;;8.70;75.90;;;;;;5094936;28;20693;-63
2022/04/12 04:32:02;;;;;;;6.75;6.00;;;8.70;76.00;;;;;;5095311;28;20223;-63
2022/04/12 04:34:30;;;;;;;9.25;5.57;;;8.70;76.00;;;;;;5095166;28;20236;-62
2022/04/12 04:36:57;;;;;;;9.15;6.30;;;8.70;75.70;;;;;;5095275;28;20280;-63
2022/04/12 04:39:24;;;;;;;9.75;5.95;;;8.60;75.60;;;;;;5095228;28;20244;-63
2022/04/12 04:41:51;;;;;;;8.40;6.78;;;8.70;76.10;;;;;;5094849;28;20232;-63
2022/04/12 04:44:18;;;;;;;7.30;4.85;;;8.70;76.00;;;;;;5095223;28;20689;-63
2022/04/12 04:46:44;;;;;;;7.15;5.70;;;8.60;75.80;;;;;;5094904;28;20622;-63
2022/04/12 04:49:11;;;;;;;6.00;5.40;;;8.60;75.70;;;;;;5095016;28;20219;-63
2022/04/12 04:51:41;;;;;;;6.15;5.40;;;8.60;75.90;;;;;;5094358;28;20238;-63
2022/04/12 04:54:08;;;;;;;7.18;5.80;;;8.60;76.00;;;;;;5095153;28;20579;-63
2022/04/12 04:56:35;;;;;;;7.82;5.43;;;8.50;75.80;;;;;;5094448;28;20561;-63
2022/04/12 04:59:02;;;;;;;7.13;5.05;;;8.60;76.10;;;;;;5095111;28;20225;-63
2022/04/12 05:01:29;;;;;;;15.40;5.95;;;8.60;76.10;;;;;;5095056;28;20293;-63
2022/04/12 05:03:55;;;;;;;6.13;4.97;;;8.60;76.00;;;;;;5094571;28;20581;-63
2022/04/12 05:06:22;;;;;;;7.50;6.35;;;8.60;76.30;;;;;;5094969;28;20227;-63
2022/04/12 05:08:51;;;;;;;7.15;5.45;;;8.50;76.30;;;;;;5094605;28;20226;-63
2022/04/12 05:11:17;;;;;;;6.97;5.60;;;8.50;76.00;;;;;;5094535;28;20235;-63
2022/04/12 05:13:45;;;;;;;12.05;5.85;;;8.50;76.40;;;;;;5094324;28;20302;-63
2022/04/12 05:16:11;;;;;;;10.90;6.20;;;8.40;76.40;;;;;;5094562;28;20223;-63
2022/04/12 05:18:38;;;;;;;9.05;6.10;;;8.40;76.40;;;;;;5094145;28;20228;-63
2022/04/12 05:21:05;;;;;;;10.07;6.70;;;8.50;76.80;;;;;;5094396;28;20227;-63
2022/04/12 05:23:32;;;;;;;14.88;7.35;;;8.50;77.00;;;;;;5094226;28;20223;-62
2022/04/12 05:26:01;;;;;;;13.63;7.22;;;8.40;76.70;;;;;;5094297;28;20219;-63
2022/04/12 05:28:28;;;;;;;6.40;5.80;;;8.40;76.80;;;;;;5094703;28;20223;-63
2022/04/12 05:30:55;;;;;;;6.57;5.95;;;8.40;76.90;;;;;;5093957;28;20292;-63
2022/04/12 05:33:22;;;;;;;10.90;6.07;;;8.50;76.90;;;;;;5094302;28;20622;-63
2022/04/12 05:35:49;;;;;;;9.07;5.60;;;8.50;77.10;;;;;;5093820;28;20223;-63
2022/04/12 05:38:15;;;;;;;25.80;7.90;;;8.60;77.10;;;;;;5094306;28;20223;-62
2022/04/12 05:40:42;;;;;;;11.73;6.57;;;8.60;76.70;;;;;;5093781;28;20244;-62
2022/04/12 05:43:10;;;;;;;7.50;5.72;;;8.60;75.60;;;;;;5074134;28;20228;-62
2022/04/12 05:45:37;;;;;;;13.15;6.93;;;8.60;75.80;;;;;;5073546;28;20701;-63
2022/04/12 05:48:05;;;;;;;8.85;7.07;;;8.60;75.80;;;;;;5083490;28;20219;-62
2022/04/12 05:50:31;;;;;;;9.77;6.15;;;8.70;75.90;;;;;;5093977;28;20227;-63
2022/04/12 05:52:58;;;;;;;10.27;7.93;;;8.70;75.80;;;;;;5093497;28;20242;-62
2022/04/12 05:55:28;;;;;;;10.38;6.13;;;8.80;75.90;;;;;;5093804;28;20226;-62
2022/04/12 05:57:57;;;;;;;10.90;6.75;;;8.80;74.80;;;;;;5093365;28;20235;-63
2022/04/12 06:00:26;;;;;;;7.13;5.60;;;8.80;74.60;;;;;;5093768;28;20219;-62
2022/04/12 06:02:54;;;;;;;6.47;5.95;;;8.90;74.50;;;;;;5092537;28;20259;-63
2022/04/12 06:05:23;;;;;;;9.35;6.30;;;9.00;74.40;;;;;;5093849;28;20235;-63
2022/04/12 06:07:50;;;;;;;7.63;6.15;;;9.10;74.20;;;;;;5093031;28;20223;-63
2022/04/12 06:10:19;;;;;;;6.43;5.30;;;9.20;74.40;;;;;;5093354;28;20234;-63
2022/04/12 06:12:47;;;;;;;10.88;5.78;;;9.30;74.50;;;;;;5093266;28;20557;-63
2022/04/12 06:15:14;;;;;;;8.90;6.07;;;9.30;73.40;;;;;;5093494;28;20223;-62
2022/04/12 06:17:42;;;;;;;6.30;5.30;;;9.40;73.40;;;;;;5092949;28;20254;-63
2022/04/12 06:20:11;;;;;;;6.20;5.57;;;9.50;73.10;;;;;;5093259;28;20219;-62
2022/04/12 06:22:39;;;;;;;7.97;5.97;;;9.60;73.10;;;;;;5092740;28;20227;-62
2022/04/12 06:25:07;;;;;;;10.63;5.32;;;9.70;73.40;;;;;;5093505;28;20242;-63
2022/04/12 06:27:36;;;;;;;7.75;5.20;;;9.70;71.40;;;;;;5093503;28;20240;-62
2022/04/12 06:30:05;;;;;;;7.55;5.57;;;9.80;71.70;;;;;;5092924;28;20219;-62
2022/04/12 06:32:32;;;;;;;6.53;4.97;;;9.80;69.80;;;;;;5093080;28;20231;-63
2022/04/12 06:35:00;;;;;;;9.48;6.50;;;9.90;69.30;;;;;;5092932;28;20233;-63
2022/04/12 06:37:28;;;;;;;10.32;5.53;;;9.90;69.30;;;;;;5093016;28;20222;-63
2022/04/12 06:39:56;;;;;;;6.90;4.82;;;10.00;67.80;;;;;;5092710;28;20243;-63
2022/04/12 06:42:23;;;;;;;7.15;5.57;;;10.00;67.30;;;;;;5092882;28;20238;-63
2022/04/12 06:44:50;;;;;;;6.22;4.82;;;10.10;67.00;;;;;;5092666;28;20224;-63
2022/04/12 06:47:17;;;;;;;6.90;5.97;;;10.20;66.70;;;;;;5092773;28;20227;-63
2022/04/12 06:49:45;;;;;;;5.32;4.82;;;10.20;66.70;;;;;;5092845;28;20255;-63
2022/04/12 06:52:14;;;;;;;7.38;4.70;;;10.30;66.70;;;;;;5093088;28;20242;-63
2022/04/12 06:54:41;;;;;;;5.60;5.05;;;10.40;66.00;;;;;;5092740;28;20223;-63
2022/04/12 06:57:08;;;;;;;5.78;5.25;;;10.40;65.70;;;;;;5092701;28;20216;-63
2022/04/12 06:59:35;;;;;;;8.43;6.00;;;10.50;65.40;;;;;;5092881;28;20230;-63
2022/04/12 07:02:03;;;;;;;7.78;5.05;;;10.60;65.60;;;;;;5092227;28;20219;-63
2022/04/12 07:04:30;;;;;;;5.45;4.70;;;10.70;65.80;;;;;;5093036;28;20559;-63
2022/04/12 07:06:58;;;;;;;5.45;4.90;;;10.80;65.70;;;;;;5092298;28;20228;-62
2022/04/12 07:09:27;;;;;;;7.70;6.18;;;10.90;65.30;;;;;;5092777;28;20228;-62
2022/04/12 07:11:54;;;;;;;6.43;5.50;;;11.00;64.90;;;;;;5092476;28;20227;-61
2022/04/12 07:14:21;;;;;;;7.18;5.65;;;11.00;63.30;;;;;;5095219;28;20222;-62
2022/04/12 07:16:48;;;;;;;6.32;5.18;;;11.10;63.00;;;;;;5096397;28;20238;-62
2022/04/12 07:19:15;;;;;;;6.60;5.28;;;11.10;62.90;;;;;;5097095;28;20220;-62
2022/04/12 07:21:42;;;;;;;5.38;4.88;;;11.30;63.20;;;;;;5096925;28;20318;-62
2022/04/12 07:24:09;;;;;;;6.45;5.65;;;11.40;62.80;;;;;;5096545;28;20649;-62
2022/04/12 07:26:37;;;;;;;5.75;4.97;;;11.40;62.50;;;;;;5096760;28;20561;-62
2022/04/12 07:29:04;;;;;;;14.07;5.43;;;11.50;62.90;;;;;;5096217;28;20676;-62
2022/04/12 07:31:31;;;;;;;4.97;4.30;;;11.60;62.20;;;;;;5096579;28;20231;-62
2022/04/12 07:33:58;;;;;;;15.73;5.53;;;11.70;61.80;;;;;;5096263;28;20219;-62
2022/04/12 07:36:25;;;;;;;6.85;5.90;;;11.80;61.80;;;;;;5096576;28;20218;-62
2022/04/12 07:38:52;;;;;;;5.55;5.00;;;11.80;61.50;;;;;;5096058;28;20673;-62
2022/04/12 07:41:19;;;;;;;6.32;5.10;;;11.90;61.40;;;;;;5096408;28;20227;-63
2022/04/12 07:43:49;;;;;;;5.43;5.00;;;11.90;60.80;;;;;;5096107;28;20238;-63
2022/04/12 07:46:16;;;;;;;6.15;4.80;;;12.10;61.40;;;;;;5096778;28;20219;-63
2022/04/12 07:48:44;;;;;;;4.93;4.40;;;12.20;61.10;;;;;;5096191;28;20241;-62
2022/04/12 07:51:11;;;;;;;4.88;4.38;;;12.20;60.80;;;;;;5096046;28;20220;-62
2022/04/12 07:53:38;;;;;;;8.23;5.45;;;12.20;59.90;;;;;;5096319;28;20219;-62
2022/04/12 07:56:05;;;;;;;10.43;5.70;;;12.30;60.40;;;;;;5095644;28;20220;-63
2022/04/12 07:58:32;;;;;;;7.45;5.75;;;12.30;59.50;;;;;;5096289;28;20237;-63
2022/04/12 08:01:00;;;;;;;5.70;4.78;;;12.30;58.80;;;;;;5095617;28;20250;-63
2022/04/12 08:03:27;;;;;;;5.10;4.60;;;12.30;58.70;;;;;;5095938;28;20235;-63
2022/04/12 08:05:54;;;;;;;7.97;3.97;;;12.40;58.90;;;;;;5095771;28;20290;-63
2022/04/12 08:08:21;;;;;;;4.93;4.15;;;12.50;59.20;;;;;;5096089;28;20623;-63
2022/04/12 08:10:48;;;;;;;8.10;5.30;;;12.50;58.40;;;;;;5095431;28;20232;-63
2022/04/12 08:13:15;;;;;;;6.57;5.03;;;12.60;58.10;;;;;;5095874;28;20673;-63
2022/04/12 08:15:42;;;;;;;4.95;4.45;;;12.60;57.90;;;;;;5095767;28;20230;-63
2022/04/12 08:18:10;;;;;;;7.05;4.35;;;12.70;57.60;;;;;;5095360;28;20227;-63
2022/04/12 08:20:37;;;;;;;7.28;4.80;;;12.80;57.20;;;;;;5095843;28;20234;-64
2022/04/12 08:23:03;;;;;;;6.20;4.60;;;12.90;57.50;;;;;;5095313;28;20223;-63
2022/04/12 08:25:30;;;;;;;7.07;5.05;;;13.00;56.80;;;;;;5094832;28;20227;-63
2022/04/12 08:27:57;;;;;;;13.27;5.30;;;13.10;56.60;;;;;;5095284;28;20223;-63
2022/04/12 08:30:24;;;;;;;5.72;4.50;;;13.10;56.70;;;;;;5095527;28;20223;-62
2022/04/12 08:32:51;;;;;;;5.28;4.13;;;13.20;56.10;;;;;;5094861;28;20231;-62
2022/04/12 08:35:19;;;;;;;6.50;5.10;;;13.20;55.70;;;;;;5095363;28;20224;-63
2022/04/12 08:37:46;;;;;;;11.02;5.40;;;13.30;55.90;;;;;;5095567;28;20228;-62
2022/04/12 08:40:14;;;;;;;7.38;4.13;;;13.30;55.10;;;;;;5094752;28;20246;-63
2022/04/12 08:42:41;;;;;;;6.45;4.68;;;13.40;55.50;;;;;;5079399;28;20247;-62
2022/04/12 08:45:09;;;;;;;4.90;4.33;;;13.50;55.60;;;;;;5074517;28;20228;-63
2022/04/12 08:47:36;;;;;;;6.63;4.78;;;13.70;55.50;;;;;;5074823;28;20479;-62
2022/04/12 08:50:05;;;;;;;6.35;4.63;;;13.80;55.10;;;;;;5074585;28;20231;-63
2022/04/12 08:52:34;;;;;;;5.63;5.13;;;13.90;54.10;;;;;;5074723;28;20227;-62
2022/04/12 08:55:01;;;;;;;8.60;4.45;;;13.90;53.90;;;;;;5074319;28;20235;-62
2022/04/12 08:57:29;;;;;;;8.53;4.60;;;14.00;54.10;;;;;;5094811;28;20737;-62
2022/04/12 08:59:56;;;;;;;11.25;6.95;;;14.10;53.80;;;;;;5094410;28;20481;-62
2022/04/12 09:02:23;;;;;;;10.57;5.50;;;14.20;53.60;;;;;;5094797;28;20227;-62
2022/04/12 09:04:51;;;;;;;4.73;4.27;;;14.30;53.30;;;;;;5094856;28;20486;-63
2022/04/12 09:07:18;;;;;;;9.50;5.40;;;14.20;53.30;;;;;;5094465;28;20466;-62
2022/04/12 09:09:46;;;;;;;5.63;5.00;;;14.30;53.00;;;;;;5094898;28;20554;-63
2022/04/12 09:12:14;;;;;;;8.80;4.80;;;14.40;53.00;;;;;;5094469;28;20473;-63
2022/04/12 09:14:43;;;;;;;4.27;3.97;;;14.40;52.30;;;;;;5094679;28;20241;-63
2022/04/12 09:17:12;;;;;;;4.82;4.25;;;14.40;51.90;;;;;;5094226;28;20453;-63
2022/04/12 09:19:45;;;;;;;9.10;5.67;;;14.30;51.00;;;;;;5094616;28;20215;-63
2022/04/12 09:22:13;;;;;;;5.87;5.27;;;14.40;51.20;;;;;;5093900;28;20956;-63
2022/04/12 09:24:46;;;;;;;5.00;4.32;;;14.40;51.30;;;;;;5094569;28;20500;-63
2022/04/12 09:27:14;;;;;;;5.80;4.70;;;14.40;51.50;;;;;;5094107;28;20231;-63
2022/04/12 09:29:46;;;;;;;9.00;4.90;;;14.40;51.10;;;;;;5094329;28;20461;-62
2022/04/12 09:32:15;;;;;;;6.37;5.83;;;14.40;51.50;;;;;;5093879;28;20231;-63
2022/04/12 09:34:43;;;;;;;6.43;5.83;;;14.50;51.40;;;;;;5094354;28;20798;-63
2022/04/12 09:37:21;;;;;;;5.20;4.65;;;14.50;51.50;;;;;;5092892;28;20477;-63
2022/04/12 09:39:54;;;;;;;5.70;5.20;;;14.50;52.00;;;;;;5094069;28;20253;-63
2022/04/12 09:42:37;;;;;;;7.23;5.27;;;14.50;52.00;;;;;;5093729;28;20938;-63
2022/04/12 09:45:04;;;;;;;7.60;5.90;;;14.50;51.80;;;;;;5093506;28;20466;-64
2022/04/12 09:47:31;;;;;;;5.40;4.90;;;14.60;52.20;;;;;;5094139;28;20465;-63
2022/04/12 09:49:59;;;;;;;6.10;5.50;;;14.70;52.30;;;;;;5093688;28;20813;-63
2022/04/12 09:52:27;;;;;;;6.17;5.27;;;14.80;52.30;;;;;;5093611;28;20473;-63
2022/04/12 09:54:55;;;;;;;5.47;4.67;;;14.90;52.40;;;;;;5093979;28;20469;-63
2022/04/12 09:57:23;;;;;;;7.43;4.73;;;15.00;52.50;;;;;;5093255;28;20465;-63
2022/04/12 09:59:51;;;;;;;5.77;5.23;;;15.00;52.20;;;;;;5093748;28;20544;-63
2022/04/12 10:02:19;;;;;;;6.93;5.27;;;15.00;51.50;;;;;;5093192;28;20469;-63
2022/04/12 10:04:47;;;;;;;7.07;4.87;;;15.10;51.70;;;;;;5093680;28;20820;-63
2022/04/12 10:07:18;;;;;;;6.40;5.27;;;14.90;49.80;;;;;;5093098;28;20458;-63
2022/04/12 10:09:46;;;;;;;6.73;5.30;;;14.90;50.40;;;;;;5093542;28;20974;-63
2022/04/12 10:12:14;;;;;;;5.30;4.90;;;15.00;50.50;;;;;;5093099;28;20805;-63
2022/04/12 10:14:42;;;;;;;6.00;5.27;;;15.00;50.00;;;;;;5093555;28;20480;-62
2022/04/12 10:17:10;;;;;;;6.30;4.70;;;15.10;50.20;;;;;;5093210;28;20457;-62
2022/04/12 10:19:37;;;;;;;5.07;4.53;;;15.10;50.20;;;;;;5093406;28;20470;-62
2022/04/12 10:22:04;;;;;;;6.70;4.20;;;15.20;49.20;;;;;;5092815;28;20461;-63
2022/04/12 10:24:32;;;;;;;6.03;4.73;;;15.40;49.60;;;;;;5093298;28;20457;-62
2022/04/12 10:26:59;;;;;;;5.80;5.30;;;15.50;49.40;;;;;;5093204;28;20469;-63
2022/04/12 10:29:27;;;;;;;5.90;4.40;;;15.60;48.60;;;;;;5093105;28;21005;-63
2022/04/12 10:31:56;;;;;;;4.30;3.90;;;15.70;48.50;;;;;;5093245;28;20474;-63
2022/04/12 10:34:23;;;;;;;7.57;5.37;;;15.80;48.30;;;;;;5092827;28;20457;-63
2022/04/12 10:37:02;;;;;;;5.47;4.90;;;15.90;48.20;;;;;;5093234;28;20465;-62
2022/04/12 10:39:32;;;;;;;4.97;4.00;;;16.00;47.90;;;;;;5092942;28;20937;-63
2022/04/12 10:42:05;;;;;;;6.47;5.90;;;16.10;47.80;;;;;;5092931;28;20469;-64
2022/04/12 10:44:42;;;;;;;5.37;4.53;;;16.10;47.00;;;;;;5092558;28;20454;-63
2022/04/12 10:47:24;;;;;;;9.60;5.50;;;16.10;47.40;;;;;;5092469;28;20480;-62
2022/04/12 10:49:55;;;;;;;6.90;5.10;;;16.10;46.80;;;;;;5092677;28;20549;-63
2022/04/12 10:52:36;;;;;;;6.00;5.40;;;16.10;47.00;;;;;;5092425;28;20469;-63
2022/04/12 10:55:05;;;;;;;5.70;4.53;;;16.10;47.10;;;;;;5092958;28;20466;-63
2022/04/12 10:57:32;;;;;;;4.40;4.10;;;16.00;47.40;;;;;;5072071;28;20470;-62
2022/04/12 11:00:09;;;;;;;7.20;5.27;;;16.20;47.40;;;;;;5072720;28;20466;-63
2022/04/12 11:02:42;;;;;;;5.57;5.07;;;16.00;46.40;;;;;;5072484;28;20454;-62
2022/04/12 11:06:02;;;;;;;6.23;4.63;;;16.00;46.80;;;;;;5072747;28;20463;-63
2022/04/12 11:08:48;;;;;;;5.00;4.60;;;16.00;46.90;;;;;;5072466;28;20886;-63
2022/04/12 11:11:20;;;;;;;6.87;4.80;;;16.10;47.10;;;;;;5071930;28;20458;-63
2022/04/12 11:13:49;;;;;;;8.03;5.10;;;16.10;46.10;;;;;;5076957;28;20514;-63
2022/04/12 11:16:18;;;;;;;10.57;6.10;;;16.00;46.40;;;;;;5084151;28;20453;-63
2022/04/12 11:18:49;;;;;;;10.10;6.27;;;16.00;46.50;;;;;;5084394;28;20465;-62
2022/04/12 11:21:18;;;;;;;6.40;5.80;;;16.10;46.90;;;;;;5090087;28;20466;-63
2022/04/12 11:23:47;;;;;;;8.63;4.50;;;16.10;47.10;;;;;;5087015;28;20457;-64
2022/04/12 11:26:28;;;;;;;5.90;5.30;;;16.10;45.50;;;;;;5092251;28;20461;-63
2022/04/12 11:28:56;;;;;;;4.67;4.27;;;16.00;45.70;;;;;;5092150;28;20472;-63
2022/04/12 11:31:25;;;;;;;4.93;4.43;;;15.90;45.10;;;;;;5084472;28;20859;-63
2022/04/12 11:33:52;;;;;;;6.57;5.87;;;16.00;45.80;;;;;;5092578;28;20462;-63
2022/04/12 11:36:19;;;;;;;5.17;4.70;;;16.00;46.50;;;;;;5092385;28;20469;-63
2022/04/12 11:38:47;;;;;;;7.57;5.40;;;16.20;47.00;;;;;;5082687;28;20463;-63
2022/04/12 11:41:15;;;;;;;9.13;5.97;;;16.20;46.70;;;;;;5071890;28;20793;-63
2022/04/12 11:43:42;;;;;;;7.43;5.93;;;16.20;47.20;;;;;;5072281;28;20481;-63
2022/04/12 11:46:09;;;;;;;9.80;5.70;;;16.20;47.40;;;;;;5071872;28;20470;-63
2022/04/12 11:48:37;;;;;;;7.83;5.43;;;16.20;47.50;;;;;;5088459;28;20492;-63
2022/04/12 11:51:06;;;;;;;7.13;4.70;;;16.20;47.50;;;;;;5091740;28;20804;-63
2022/04/12 11:53:33;;;;;;;5.20;4.70;;;16.20;46.20;;;;;;5092571;28;20964;-63
2022/04/12 11:56:01;;;;;;;5.73;4.83;;;16.30;46.40;;;;;;5091958;28;20465;-63
2022/04/12 11:58:29;;;;;;;6.00;4.90;;;16.40;46.10;;;;;;5092431;28;20469;-63
2022/04/12 12:00:56;;;;;;;5.47;4.97;;;16.50;45.80;;;;;;5093337;28;20469;-61
2022/04/12 12:03:23;;;;;;;8.80;5.30;;;16.60;45.60;;;;;;5095993;28;20462;-63
2022/04/12 12:05:51;;;;;;;8.47;4.83;;;16.50;46.00;;;;;;5095877;28;20465;-63
2022/04/12 12:08:20;;;;;;;5.43;4.90;;;16.60;46.30;;;;;;5095375;28;20450;-63
2022/04/12 12:10:47;;;;;;;5.70;5.20;;;16.70;46.30;;;;;;5095732;28;20509;-63
2022/04/12 12:13:14;;;;;;;6.60;5.80;;;16.80;46.60;;;;;;5091761;28;20466;-63
2022/04/12 12:15:41;;;;;;;5.70;5.10;;;16.90;46.70;;;;;;5086364;28;20461;-63
2022/04/12 12:18:08;;;;;;;6.10;5.27;;;16.80;46.50;;;;;;5095351;28;20483;-63
2022/04/12 12:20:37;;;;;;;6.43;5.53;;;16.90;46.30;;;;;;5095538;28;20797;-63
2022/04/12 12:23:06;;;;;;;10.53;4.97;;;16.90;46.60;;;;;;5095162;28;20470;-63
2022/04/12 12:25:38;;;;;;;6.37;5.20;;;16.90;46.40;;;;;;5095372;28;20459;-63
2022/04/12 12:28:11;;;;;;;7.93;6.07;;;16.90;46.10;;;;;;5095085;28;20779;-63
2022/04/12 12:30:38;;;;;;;6.33;5.50;;;16.90;46.20;;;;;;5095466;28;20470;-63
2022/04/12 12:33:05;;;;;;;9.80;6.40;;;17.00;46.20;;;;;;5094862;28;20466;-64
2022/04/12 12:35:32;;;;;;;6.10;5.50;;;17.00;45.90;;;;;;5081652;28;20949;-63
2022/04/12 12:38:03;;;;;;;5.97;5.00;;;17.10;45.60;;;;;;5077719;28;20463;-64
2022/04/12 12:40:32;;;;;;;5.37;4.83;;;17.00;44.50;;;;;;5080772;28;20471;-63
2022/04/12 12:43:02;;;;;;;7.03;4.83;;;17.00;44.90;;;;;;5089019;28;20487;-63
2022/04/12 12:45:29;;;;;;;7.10;5.07;;;17.00;44.40;;;;;;5073891;28;20470;-63
2022/04/12 12:47:58;;;;;;;5.37;4.77;;;17.10;44.80;;;;;;5080883;28;20478;-62
2022/04/12 12:50:27;;;;;;;8.27;5.33;;;17.10;45.00;;;;;;5085277;28;20449;-63
2022/04/12 12:52:59;;;;;;;6.07;4.50;;;17.10;44.60;;;;;;5079038;28;20495;-62
2022/04/12 12:55:28;;;;;;;5.83;4.90;;;17.20;44.30;;;;;;5092627;28;20525;-63
2022/04/12 12:57:57;;;;;;;5.30;4.90;;;17.20;44.50;;;;;;5089278;28;20802;-63